createdAt,value
2022-08-06T00:00:06.768Z,4.40
2022-08-06T00:02:35.111Z,3.60
2022-08-06T00:05:03.962Z,3.65
2022-08-06T00:07:44.967Z,3.85
2022-08-06T00:10:14.828Z,3.42
2022-08-06T00:12:41.879Z,3.30
2022-08-06T00:15:13.057Z,3.00
2022-08-06T00:17:41.429Z,3.00
2022-08-06T00:20:10.551Z,2.80
2022-08-06T00:22:37.895Z,3.10
2022-08-06T00:25:05.240Z,2.60
2022-08-06T00:27:39.014Z,2.85
2022-08-06T00:30:06.476Z,2.65
2022-08-06T00:32:42.091Z,2.65
2022-08-06T00:35:10.636Z,2.67
2022-08-06T00:37:55.205Z,2.50
2022-08-06T00:40:25.159Z,2.25
2022-08-06T00:42:54.323Z,2.42
2022-08-06T00:45:24.164Z,2.30
2022-08-06T00:48:02.683Z,2.10
2022-08-06T00:50:31.103Z,2.00
2022-08-06T00:52:58.380Z,2.53
2022-08-06T00:55:31.842Z,2.30
2022-08-06T00:58:03.315Z,2.00
2022-08-06T01:00:31.244Z,2.05
2022-08-06T01:03:05.879Z,2.17
2022-08-06T01:06:03.960Z,1.88
2022-08-06T01:08:19.998Z,2.00
2022-08-06T01:10:49.344Z,2.00
2022-08-06T01:13:25.701Z,1.70
2022-08-06T01:16:08.445Z,1.65
2022-08-06T01:18:36.299Z,1.40
2022-08-06T01:21:55.477Z,1.70
2022-08-06T01:23:53.780Z,1.45
2022-08-06T01:26:22.280Z,1.42
2022-08-06T01:28:52.309Z,1.67
2022-08-06T01:31:20.352Z,1.45
2022-08-06T01:33:47.896Z,1.40
2022-08-06T01:36:17.183Z,1.40
2022-08-06T01:38:50.579Z,1.30
2022-08-06T01:41:57.955Z,1.10
2022-08-06T01:44:26.186Z,1.40
2022-08-06T01:46:56.692Z,1.23
2022-08-06T01:49:25.539Z,0.98
2022-08-06T01:52:14.309Z,1.23
2022-08-06T01:54:43.588Z,1.20
2022-08-06T01:57:14.575Z,1.10
2022-08-06T01:59:57.731Z,1.40
2022-08-06T02:02:28.870Z,1.20
2022-08-06T02:04:59.278Z,1.40
2022-08-06T02:08:38.183Z,1.20
2022-08-06T02:10:19.942Z,1.13
2022-08-06T02:12:46.995Z,1.20
2022-08-06T02:15:14.051Z,1.10
2022-08-06T02:18:04.650Z,1.30
2022-08-06T02:20:37.137Z,1.17
2022-08-06T02:23:05.940Z,1.20
2022-08-06T02:25:36.193Z,1.10
2022-08-06T02:28:03.322Z,1.23
2022-08-06T02:30:35.255Z,1.20
2022-08-06T02:33:04.210Z,1.33
2022-08-06T02:35:35.117Z,1.25
2022-08-06T02:38:07.859Z,1.27
2022-08-06T02:40:39.889Z,1.40
2022-08-06T02:43:07.519Z,1.40
2022-08-06T02:45:38.280Z,1.30
2022-08-06T02:48:05.505Z,1.50
2022-08-06T02:50:37.225Z,1.38
2022-08-06T02:53:04.613Z,1.33
2022-08-06T02:55:35.767Z,1.50
2022-08-06T02:58:03.145Z,1.35
2022-08-06T03:00:31.623Z,1.30
2022-08-06T03:03:00.123Z,1.38
2022-08-06T03:05:54.802Z,1.30
2022-08-06T03:08:14.525Z,1.30
2022-08-06T03:10:43.224Z,10.82
2022-08-06T03:13:10.936Z,3.67
2022-08-06T03:15:57.495Z,3.45
2022-08-06T03:18:25.299Z,1.95
2022-08-06T03:20:55.275Z,2.30
2022-08-06T03:23:24.649Z,1.83
2022-08-06T03:25:54.745Z,1.85
2022-08-06T03:28:22.804Z,1.70
2022-08-06T03:30:55.371Z,1.70
2022-08-06T03:33:42.085Z,1.63
2022-08-06T03:36:10.004Z,1.77
2022-08-06T03:38:37.583Z,1.60
2022-08-06T03:41:04.625Z,1.30
2022-08-06T03:43:56.205Z,1.30
2022-08-06T03:46:22.184Z,1.33
2022-08-06T03:48:49.420Z,1.40
2022-08-06T03:51:16.463Z,1.45
2022-08-06T03:53:46.846Z,1.27
2022-08-06T03:56:17.137Z,1.17
2022-08-06T03:58:44.518Z,1.45
2022-08-06T04:01:15.208Z,1.45
2022-08-06T04:03:47.327Z,1.35
2022-08-06T04:06:20.589Z,1.45
2022-08-06T04:08:47.865Z,1.38
2022-08-06T04:12:12.756Z,1.40
2022-08-06T04:14:07.340Z,1.30
2022-08-06T04:16:36.042Z,1.38
2022-08-06T04:19:04.057Z,1.52
2022-08-06T04:22:59.454Z,1.20
2022-08-06T04:24:18.170Z,1.40
2022-08-06T04:26:46.585Z,1.40
2022-08-06T04:29:13.611Z,1.33
2022-08-06T04:32:11.170Z,1.40
2022-08-06T04:34:30.696Z,1.20
2022-08-06T04:36:57.786Z,1.52
2022-08-06T04:39:37.191Z,1.30
2022-08-06T04:42:05.882Z,1.50
2022-08-06T04:44:33.549Z,1.20
2022-08-06T04:47:00.682Z,1.40
2022-08-06T04:49:58.380Z,1.40
2022-08-06T04:52:34.462Z,1.38
2022-08-06T04:55:01.841Z,1.50
2022-08-06T04:57:33.805Z,1.38
2022-08-06T05:02:35.907Z,1.25
2022-08-06T05:05:03.231Z,1.58
2022-08-06T05:07:38.639Z,1.30
2022-08-06T05:10:18.491Z,1.38
2022-08-06T05:12:46.020Z,1.30
2022-08-06T05:15:15.088Z,1.52
2022-08-06T05:17:48.774Z,1.10
2022-08-06T05:20:27.219Z,1.40
2022-08-06T05:23:01.230Z,1.25
2022-08-06T05:25:30.482Z,1.40
2022-08-06T05:28:11.564Z,1.30
2022-08-06T05:30:39.416Z,1.10
2022-08-06T05:33:11.991Z,1.15
2022-08-06T05:35:45.748Z,1.33
2022-08-06T05:38:31.531Z,1.20
2022-08-06T05:41:00.344Z,1.13
2022-08-06T05:43:58.700Z,1.17
2022-08-06T05:46:17.334Z,1.10
2022-08-06T05:48:45.390Z,1.08
2022-08-06T05:51:16.115Z,0.95
2022-08-06T05:54:05.025Z,1.23
2022-08-06T05:56:38.668Z,1.10
2022-08-06T05:59:06.716Z,1.02
2022-08-06T06:01:43.219Z,1.23
2022-08-06T06:04:11.845Z,1.00
2022-08-06T06:06:39.994Z,1.00
2022-08-06T06:09:10.469Z,0.93
2022-08-06T06:11:55.191Z,0.80
2022-08-06T06:14:32.140Z,0.70
2022-08-06T06:17:03.387Z,0.88
2022-08-06T06:19:35.794Z,0.80
2022-08-06T06:22:06.015Z,0.73
2022-08-06T06:24:33.055Z,1.00
2022-08-06T06:27:01.483Z,0.93
2022-08-06T06:30:01.985Z,0.90
2022-08-06T06:32:30.214Z,0.70
2022-08-06T06:34:58.385Z,0.82
2022-08-06T06:37:25.425Z,0.80
2022-08-06T06:39:52.947Z,0.77
2022-08-06T06:42:32.663Z,0.80
2022-08-06T06:45:04.012Z,0.70
2022-08-06T06:47:47.949Z,0.82
2022-08-06T06:50:26.684Z,0.70
2022-08-06T06:52:53.781Z,0.60
2022-08-06T06:55:36.835Z,0.70
2022-08-06T06:58:10.331Z,0.80
2022-08-06T07:00:45.594Z,0.80
2022-08-06T07:03:15.161Z,0.73
2022-08-06T07:06:04.428Z,0.70
2022-08-06T07:08:37.205Z,0.70
2022-08-06T07:11:09.409Z,0.70
2022-08-06T07:13:47.414Z,0.70
2022-08-06T07:16:34.916Z,0.70
2022-08-06T07:21:31.083Z,0.75
2022-08-06T07:24:06.304Z,0.70
2022-08-06T07:26:48.152Z,0.80
2022-08-06T07:29:49.914Z,0.70
2022-08-06T07:32:05.547Z,0.60
2022-08-06T07:34:32.714Z,0.63
2022-08-06T07:37:01.385Z,0.70
2022-08-06T07:39:28.494Z,0.60
2022-08-06T07:42:11.290Z,0.60
2022-08-06T07:44:55.957Z,0.70
2022-08-06T07:47:29.638Z,0.70
2022-08-06T07:50:04.452Z,0.70
2022-08-06T07:52:31.912Z,0.70
2022-08-06T07:54:59.351Z,0.70
2022-08-06T07:57:53.423Z,0.73
2022-08-06T08:00:15.212Z,0.50
2022-08-06T08:02:42.375Z,0.68
2022-08-06T08:05:39.569Z,0.80
2022-08-06T08:08:09.353Z,0.68
2022-08-06T08:10:36.588Z,0.82
2022-08-06T08:13:03.995Z,0.80
2022-08-06T08:15:32.449Z,0.70
2022-08-06T08:18:01.842Z,0.60
2022-08-06T08:20:33.640Z,0.60
2022-08-06T08:23:01.839Z,0.68
2022-08-06T08:25:41.015Z,0.80
2022-08-06T08:28:11.000Z,0.60
2022-08-06T08:30:40.644Z,0.80
2022-08-06T08:33:11.491Z,0.52
2022-08-06T08:35:50.556Z,0.70
2022-08-06T08:38:29.415Z,1.17
2022-08-06T08:40:56.873Z,0.70
2022-08-06T08:43:40.792Z,0.73
2022-08-06T08:46:12.190Z,0.80
2022-08-06T08:48:39.415Z,0.70
2022-08-06T08:51:06.542Z,0.75
2022-08-06T08:53:46.314Z,0.73
2022-08-06T08:57:08.194Z,0.80
2022-08-06T08:59:17.860Z,0.90
2022-08-06T09:01:52.519Z,0.60
2022-08-06T09:04:20.974Z,0.57
2022-08-06T09:06:52.122Z,0.50
2022-08-06T09:09:19.256Z,0.68
2022-08-06T09:12:03.979Z,0.70
2022-08-06T09:14:35.461Z,0.52
2022-08-06T09:17:02.916Z,0.68
2022-08-06T09:19:37.750Z,0.60
2022-08-06T09:22:06.718Z,0.60
2022-08-06T09:24:36.557Z,0.73
2022-08-06T09:27:48.236Z,0.60
2022-08-06T09:30:00.734Z,0.50
2022-08-06T09:32:39.041Z,0.70
2022-08-06T09:35:44.910Z,0.75
2022-08-06T09:38:11.047Z,0.60
2022-08-06T09:40:38.158Z,0.80
2022-08-06T09:43:10.400Z,0.60
2022-08-06T09:45:42.260Z,0.70
2022-08-06T09:48:17.541Z,0.70
2022-08-06T09:50:51.031Z,0.70
2022-08-06T09:53:21.089Z,0.70
2022-08-06T09:55:49.715Z,0.70
2022-08-06T09:58:16.763Z,0.60
2022-08-06T10:00:46.421Z,0.75
2022-08-06T10:04:03.595Z,0.70
2022-08-06T10:06:05.090Z,0.55
2022-08-06T10:08:32.157Z,0.70
2022-08-06T10:11:07.368Z,0.60
2022-08-06T10:13:43.842Z,0.70
2022-08-06T10:16:11.736Z,0.70
2022-08-06T10:18:54.674Z,0.73
2022-08-06T10:21:26.819Z,0.60
2022-08-06T10:23:54.569Z,0.77
2022-08-06T10:26:21.651Z,0.70
2022-08-06T10:28:49.745Z,0.70
2022-08-06T10:31:21.541Z,0.60
2022-08-06T10:33:56.452Z,0.70
2022-08-06T10:38:53.894Z,0.70
2022-08-06T10:41:59.842Z,0.60
2022-08-06T10:44:07.984Z,0.70
2022-08-06T10:46:35.035Z,0.70
2022-08-06T10:50:25.963Z,0.60
2022-08-06T10:51:57.123Z,0.60
2022-08-06T10:54:25.987Z,0.70
2022-08-06T10:56:54.954Z,0.60
2022-08-06T10:59:25.544Z,0.60
2022-08-06T11:02:07.927Z,0.60
2022-08-06T11:04:34.995Z,0.70
2022-08-06T11:07:02.043Z,0.70
2022-08-06T11:10:01.577Z,0.70
2022-08-06T11:12:17.369Z,0.60
2022-08-06T11:14:44.440Z,0.70
2022-08-06T11:17:12.976Z,0.60
2022-08-06T11:19:46.321Z,0.70
2022-08-06T11:22:23.394Z,0.60
2022-08-06T11:24:59.026Z,0.60
2022-08-06T11:27:26.735Z,0.50
2022-08-06T11:30:04.902Z,0.70
2022-08-06T11:32:32.273Z,0.60
2022-08-06T11:34:59.479Z,0.60
2022-08-06T11:38:02.924Z,0.70
2022-08-06T11:40:19.832Z,0.60
2022-08-06T11:42:50.322Z,0.60
2022-08-06T11:46:20.938Z,0.70
2022-08-06T11:48:06.309Z,0.55
2022-08-06T11:50:33.422Z,0.65
2022-08-06T11:53:02.778Z,0.63
2022-08-06T11:55:30.678Z,0.70
2022-08-06T11:58:06.584Z,0.60
2022-08-06T12:00:34.096Z,0.63
2022-08-06T12:03:03.644Z,0.52
2022-08-06T12:05:30.687Z,0.60
2022-08-06T12:07:57.719Z,0.60
2022-08-06T12:10:29.196Z,0.70
2022-08-06T12:12:57.129Z,0.70
2022-08-06T12:15:59.370Z,0.60
2022-08-06T12:18:20.466Z,0.73
2022-08-06T12:23:54.620Z,0.70
2022-08-06T12:26:14.175Z,0.63
2022-08-06T12:28:42.084Z,0.65
2022-08-06T12:31:36.364Z,0.70
2022-08-06T12:33:58.600Z,0.70
2022-08-06T12:36:32.644Z,0.70
2022-08-06T12:39:02.688Z,0.60
2022-08-06T12:41:45.455Z,0.60
2022-08-06T12:44:14.786Z,0.60
2022-08-06T12:46:43.417Z,0.70
2022-08-06T12:49:10.711Z,0.68
2022-08-06T12:51:37.911Z,0.63
2022-08-06T12:54:05.023Z,0.68
2022-08-06T12:56:33.257Z,0.68
2022-08-06T12:59:05.372Z,0.60
2022-08-06T13:02:09.273Z,0.60
2022-08-06T13:04:19.769Z,0.70
2022-08-06T13:06:48.763Z,0.60
2022-08-06T13:09:16.070Z,0.60
2022-08-06T13:11:43.127Z,0.70
2022-08-06T13:14:19.314Z,0.60
2022-08-06T13:16:54.937Z,0.70
2022-08-06T13:19:28.336Z,0.77
2022-08-06T13:22:00.415Z,0.70
2022-08-06T13:24:30.839Z,0.70
2022-08-06T13:26:59.849Z,0.73
2022-08-06T13:30:30.758Z,0.80
2022-08-06T13:32:27.887Z,0.70
2022-08-06T13:35:00.891Z,0.77
2022-08-06T13:37:45.164Z,0.68
2022-08-06T13:40:15.092Z,0.70
2022-08-06T13:42:42.165Z,0.70
2022-08-06T13:45:56.945Z,0.70
2022-08-06T13:47:58.647Z,0.65
2022-08-06T13:50:28.608Z,0.63
2022-08-06T13:53:00.836Z,0.70
2022-08-06T13:56:02.628Z,0.70
2022-08-06T13:58:17.269Z,0.60
2022-08-06T14:00:47.641Z,0.60
2022-08-06T14:03:16.057Z,0.80
2022-08-06T14:05:48.862Z,0.90
2022-08-06T14:08:19.403Z,0.73
2022-08-06T14:13:30.211Z,0.85
2022-08-06T14:15:57.398Z,0.70
2022-08-06T14:18:28.375Z,0.70
2022-08-06T14:20:55.699Z,0.73
2022-08-06T14:23:23.264Z,0.60
2022-08-06T14:25:59.991Z,0.70
2022-08-06T14:28:30.931Z,0.70
2022-08-06T14:31:00.434Z,0.75
2022-08-06T14:33:36.928Z,0.68
2022-08-06T14:36:05.982Z,0.65
2022-08-06T14:38:34.962Z,0.65
2022-08-06T14:41:51.186Z,0.75
2022-08-06T14:44:26.594Z,0.60
2022-08-06T14:49:20.726Z,0.80
2022-08-06T14:52:20.980Z,0.63
2022-08-06T14:54:34.797Z,0.70
2022-08-06T14:57:14.781Z,0.70
2022-08-06T14:59:48.708Z,0.73
2022-08-06T15:02:20.124Z,0.70
2022-08-06T15:04:52.320Z,0.68
2022-08-06T15:07:25.580Z,0.70
2022-08-06T15:10:03.731Z,0.80
2022-08-06T15:12:42.498Z,0.70
2022-08-06T15:15:18.377Z,0.60
2022-08-06T15:18:11.326Z,0.70
2022-08-06T15:20:38.167Z,0.90
2022-08-06T15:23:05.808Z,0.80
2022-08-06T15:26:01.541Z,0.70
2022-08-06T15:28:20.598Z,0.60
2022-08-06T15:30:47.922Z,0.80
2022-08-06T15:33:15.059Z,0.60
2022-08-06T15:35:58.285Z,0.70
2022-08-06T15:38:27.154Z,0.70
2022-08-06T15:40:54.268Z,0.80
2022-08-06T15:43:23.705Z,0.75
2022-08-06T15:45:55.393Z,0.70
2022-08-06T15:48:29.175Z,0.60
2022-08-06T15:51:27.061Z,0.52
2022-08-06T15:53:43.656Z,0.70
2022-08-06T15:56:33.962Z,0.70
2022-08-06T15:59:11.435Z,0.80
2022-08-06T16:01:51.873Z,0.68
2022-08-06T16:04:27.027Z,0.68
2022-08-06T16:06:56.642Z,0.80
2022-08-06T16:09:27.732Z,0.63
2022-08-06T16:11:55.715Z,0.60
2022-08-06T16:14:33.853Z,0.60
2022-08-06T16:17:09.825Z,0.60
2022-08-06T16:19:49.404Z,0.75
2022-08-06T16:22:18.481Z,0.70
2022-08-06T16:24:46.659Z,0.70
2022-08-06T16:27:17.033Z,0.80
2022-08-06T16:29:44.331Z,0.80
2022-08-06T16:32:17.446Z,0.70
2022-08-06T16:34:47.076Z,0.70
2022-08-06T16:40:05.182Z,0.70
2022-08-06T16:42:34.050Z,0.73
2022-08-06T16:45:02.917Z,0.80
2022-08-06T16:50:26.338Z,0.70
2022-08-06T16:55:42.298Z,0.57
2022-08-06T16:58:16.628Z,0.60
2022-08-06T17:00:59.673Z,0.60
2022-08-06T17:03:46.002Z,0.60
2022-08-06T17:09:00.502Z,0.70
2022-08-06T17:11:45.330Z,0.70
2022-08-06T17:14:17.156Z,0.98
2022-08-06T17:16:47.394Z,0.70
2022-08-06T17:19:16.262Z,0.60
2022-08-06T17:21:52.959Z,0.70
2022-08-06T17:24:32.963Z,0.70
2022-08-06T17:27:04.667Z,1.05
2022-08-06T17:29:45.403Z,0.70
2022-08-06T17:32:22.744Z,0.68
2022-08-06T17:35:00.122Z,0.70
2022-08-06T17:37:44.318Z,0.77
2022-08-06T17:40:19.853Z,0.77
2022-08-06T17:42:28.511Z,0.80
2022-08-06T17:42:58.330Z,0.70
2022-08-06T17:45:27.759Z,0.80
2022-08-06T17:47:56.594Z,0.82
2022-08-06T17:50:42.382Z,0.73
2022-08-06T17:53:20.143Z,0.70
2022-08-06T17:56:00.368Z,0.77
2022-08-06T17:58:37.400Z,0.60
2022-08-06T18:01:16.731Z,0.75
2022-08-06T18:03:49.666Z,0.68
2022-08-06T18:06:18.494Z,0.70
2022-08-06T18:08:50.956Z,0.80
2022-08-06T18:11:20.399Z,0.80
2022-08-06T18:13:53.387Z,0.73
2022-08-06T18:16:25.356Z,0.87
2022-08-06T18:18:57.013Z,0.73
2022-08-06T18:21:25.654Z,0.70
2022-08-06T18:23:56.994Z,0.80
2022-08-06T18:26:30.917Z,0.80
2022-08-06T18:29:00.229Z,0.65
2022-08-06T18:31:59.092Z,0.80
2022-08-06T18:34:18.799Z,0.70
2022-08-06T18:36:46.194Z,0.77
2022-08-06T18:39:15.239Z,0.80
2022-08-06T18:41:56.601Z,0.75
2022-08-06T18:44:27.268Z,0.70
2022-08-06T18:46:55.974Z,0.80
2022-08-06T18:49:39.002Z,0.88
2022-08-06T18:52:24.523Z,0.80
2022-08-06T18:54:56.729Z,0.90
2022-08-06T18:58:01.200Z,0.88
2022-08-06T19:00:18.442Z,0.90
2022-08-06T19:02:47.174Z,0.80
2022-08-06T19:05:16.467Z,0.70
2022-08-06T19:07:48.796Z,0.90
2022-08-06T19:10:18.154Z,1.00
2022-08-06T19:12:45.876Z,0.80
2022-08-06T19:15:19.692Z,1.13
2022-08-06T19:18:13.421Z,0.82
2022-08-06T19:20:38.894Z,0.88
2022-08-06T19:23:06.936Z,0.95
2022-08-06T19:25:52.091Z,0.90
2022-08-06T19:28:36.471Z,0.90
2022-08-06T19:31:11.400Z,0.63
2022-08-06T19:33:38.643Z,0.80
2022-08-06T19:36:26.521Z,0.85
2022-08-06T19:38:54.298Z,0.80
2022-08-06T19:41:57.168Z,0.82
2022-08-06T19:44:24.669Z,0.70
2022-08-06T19:46:57.379Z,0.80
2022-08-06T19:49:24.501Z,0.80
2022-08-06T19:52:02.402Z,0.80
2022-08-06T19:54:36.141Z,0.90
2022-08-06T19:57:08.370Z,0.90
2022-08-06T20:00:52.184Z,0.80
2022-08-06T20:02:26.285Z,0.88
2022-08-06T20:04:55.668Z,0.70
2022-08-06T20:07:25.135Z,0.90
2022-08-06T20:09:59.441Z,0.80
2022-08-06T20:12:29.905Z,0.70
2022-08-06T20:14:59.579Z,0.70
2022-08-06T20:17:29.955Z,0.82
2022-08-06T20:22:42.762Z,0.80
2022-08-06T20:25:18.406Z,0.80
2022-08-06T20:29:10.242Z,0.75
2022-08-06T20:30:33.847Z,0.75
2022-08-06T20:33:02.120Z,0.80
2022-08-06T20:35:32.643Z,0.73
2022-08-06T20:38:07.011Z,0.70
2022-08-06T20:41:26.516Z,0.75
2022-08-06T20:44:04.788Z,0.75
2022-08-06T20:46:11.515Z,0.80
2022-08-06T20:48:40.303Z,0.70
2022-08-06T20:51:09.143Z,0.73
2022-08-06T20:53:37.426Z,0.77
2022-08-06T20:56:04.660Z,0.80
2022-08-06T20:58:32.583Z,0.85
2022-08-06T21:01:00.590Z,0.70
2022-08-06T21:05:15.410Z,0.80
2022-08-06T21:06:26.411Z,0.60
2022-08-06T21:08:57.989Z,0.70
2022-08-06T21:11:27.302Z,0.70
2022-08-06T21:14:04.987Z,0.70
2022-08-06T21:16:35.513Z,0.75
2022-08-06T21:19:02.659Z,0.70
2022-08-06T21:21:31.666Z,0.77
2022-08-06T21:23:59.269Z,0.70
2022-08-06T21:26:34.853Z,0.80
2022-08-06T21:29:41.596Z,0.80
2022-08-06T21:31:50.102Z,0.90
2022-08-06T21:34:19.666Z,0.70
2022-08-06T21:36:47.329Z,0.50
2022-08-06T21:39:17.054Z,0.70
2022-08-06T21:41:55.395Z,0.70
2022-08-06T21:44:24.462Z,0.70
2022-08-06T21:46:57.930Z,0.70
2022-08-06T21:50:00.261Z,0.80
2022-08-06T21:52:16.250Z,0.77
2022-08-06T21:54:55.776Z,0.70
2022-08-06T21:57:24.948Z,0.70
2022-08-06T21:59:53.211Z,0.65
2022-08-06T22:02:21.853Z,0.60
2022-08-06T22:04:59.276Z,0.68
2022-08-06T22:07:33.945Z,0.60
2022-08-06T22:10:15.041Z,0.65
2022-08-06T22:13:15.552Z,0.63
2022-08-06T22:15:34.077Z,0.70
2022-08-06T22:18:17.069Z,0.68
2022-08-06T22:20:45.926Z,0.60
2022-08-06T22:23:15.925Z,0.60
2022-08-06T22:25:44.867Z,0.70
2022-08-06T22:28:23.633Z,0.80
2022-08-06T22:30:59.181Z,0.70
2022-08-06T22:33:26.275Z,0.80
2022-08-06T22:35:58.304Z,0.70
2022-08-06T22:38:38.650Z,0.50
2022-08-06T22:41:05.683Z,0.82
2022-08-06T22:43:56.743Z,0.60
2022-08-06T22:46:24.665Z,0.60
2022-08-06T22:48:52.302Z,0.70
2022-08-06T22:51:28.511Z,0.60
2022-08-06T22:54:25.465Z,0.70
2022-08-06T22:57:05.012Z,0.60
2022-08-06T23:00:11.243Z,0.65
2022-08-06T23:02:20.133Z,0.65
2022-08-06T23:04:49.115Z,0.70
2022-08-06T23:07:25.729Z,0.60
2022-08-06T23:09:53.197Z,0.68
2022-08-06T23:12:25.340Z,0.82
2022-08-06T23:14:58.930Z,0.60
2022-08-06T23:17:26.160Z,0.70
2022-08-06T23:20:07.429Z,0.55
2022-08-06T23:22:38.914Z,0.70
2022-08-06T23:26:00.427Z,0.60
2022-08-06T23:27:55.084Z,0.70
2022-08-06T23:30:26.222Z,0.77
2022-08-06T23:32:53.411Z,0.70
2022-08-06T23:35:35.172Z,0.70
2022-08-06T23:38:32.045Z,0.63
2022-08-06T23:40:51.694Z,0.70
2022-08-06T23:43:19.397Z,0.80
2022-08-06T23:45:47.192Z,0.70
2022-08-06T23:48:15.162Z,0.70
2022-08-06T23:50:52.629Z,0.80
2022-08-06T23:54:07.802Z,0.70
2022-08-06T23:56:07.685Z,0.63
2022-08-06T23:58:36.785Z,0.70
